Time;durP1;ratioP1;P1;durP2;ratioP2;P2;SDS_P1;SDS_P2;PMS_P1;PMS_P2;Temp;Humidity;BMP_temperature;BMP_pressure;BME280_temperature;BME280_humidity;BME280_pressure;Samples;Min_cycle;Max_cycle;Signal;HPM_P1;HPM_P2
2023/04/21 00:01:11;;;;;;;35.50;22.08;;;;;;;10.95;85.20;99886.69;5052658;28;20057;-81
2023/04/21 00:03:37;;;;;;;31.25;20.23;;;;;;;10.71;85.50;99853.94;5052073;28;20057;-81
2023/04/21 00:06:05;;;;;;;34.80;20.83;;;;;;;10.72;85.25;99858.22;5052445;28;20060;-81
2023/04/21 00:08:31;;;;;;;32.50;20.63;;;;;;;10.70;85.64;99860.91;5052347;28;20443;-81
2023/04/21 00:10:56;;;;;;;41.38;21.85;;;;;;;10.80;85.77;99887.38;5052003;28;20036;-80
2023/04/21 00:13:22;;;;;;;31.27;21.77;;;;;;;10.58;85.78;99856.22;5052314;28;20029;-81
2023/04/21 00:15:48;;;;;;;36.42;23.13;;;;;;;10.60;85.72;99856.97;5052263;28;20033;-81
2023/04/21 00:18:13;;;;;;;38.80;25.40;;;;;;;10.51;85.61;99831.34;5052250;28;20028;-81
2023/04/21 00:20:38;;;;;;;34.55;23.42;;;;;;;10.63;86.19;99869.88;5052089;28;20049;-80
2023/04/21 00:23:04;;;;;;;36.67;24.35;;;;;;;10.68;86.09;99864.47;5052142;28;20452;-81
2023/04/21 00:25:29;;;;;;;33.70;22.33;;;;;;;10.58;86.02;99865.78;5052135;28;20449;-81
2023/04/21 00:27:55;;;;;;;36.00;25.27;;;;;;;10.55;86.21;99868.53;5051968;28;20449;-80
2023/04/21 00:30:20;;;;;;;37.15;24.05;;;;;;;10.38;86.48;99846.66;5052236;28;20124;-80
2023/04/21 00:32:46;;;;;;;39.97;25.08;;;;;;;10.38;86.42;99846.66;5051715;28;20052;-81
2023/04/21 00:35:11;;;;;;;42.00;26.65;;;;;;;10.48;86.86;99873.97;5051904;28;20376;-81
2023/04/21 00:37:36;;;;;;;40.63;26.65;;;;;;;10.56;86.61;99878.03;5051706;28;20025;-80
2023/04/21 00:40:03;;;;;;;41.15;27.08;;;;;;;10.44;86.69;99869.81;5051756;28;20470;-81
2023/04/21 00:42:29;;;;;;;38.08;26.70;;;;;;;10.57;86.69;99885.75;5051764;28;20048;-80
2023/04/21 00:44:54;;;;;;;45.90;28.13;;;;;;;10.43;86.51;99849.06;5051324;28;20481;-81
2023/04/21 00:47:19;;;;;;;44.85;27.15;;;;;;;10.35;86.46;99849.38;5050674;28;20028;-81
2023/04/21 00:49:46;;;;;;;41.92;27.38;;;;;;;10.49;86.02;99869.59;5051525;28;20021;-81
2023/04/21 00:52:13;;;;;;;41.67;26.40;;;;;;;10.45;85.80;99862.88;5052091;28;20040;-81
2023/04/21 00:54:39;;;;;;;39.53;26.00;;;;;;;10.37;85.57;99844.13;5051661;28;20029;-81
2023/04/21 00:57:06;;;;;;;39.78;25.90;;;;;;;10.46;84.72;99857.59;5052158;28;20029;-81
2023/04/21 00:59:32;;;;;;;36.08;25.67;;;;;;;10.39;83.95;99835.31;5051873;28;20457;-81
2023/04/21 01:01:57;;;;;;;39.03;24.80;;;;;;;10.55;83.33;99860.72;5051431;28;20025;-81
2023/04/21 01:04:23;;;;;;;34.67;23.52;;;;;;;10.53;83.26;99865.13;5051761;28;20445;-81
2023/04/21 01:06:49;;;;;;;30.20;21.08;;;;;;;10.53;81.59;99852.09;5048876;28;20060;-80
2023/04/21 01:09:14;;;;;;;30.85;20.92;;;;;;;10.50;80.66;99850.50;5049152;28;20064;-81
2023/04/21 01:11:39;;;;;;;27.48;19.55;;;;;;;10.60;79.92;99863.97;5048939;28;20048;-81
2023/04/21 01:14:06;;;;;;;26.52;18.35;;;;;;;10.51;78.71;99860.00;5049081;28;20441;-81
2023/04/21 01:16:32;;;;;;;27.73;18.35;;;;;;;10.61;77.95;99860.44;5049053;28;20044;-81
2023/04/21 01:18:58;;;;;;;31.45;18.77;;;;;;;10.52;77.77;99832.19;5048916;28;20037;-81
2023/04/21 01:21:25;;;;;;;29.48;18.27;;;;;;;10.48;76.42;99819.28;5049113;28;20037;-81
2023/04/21 01:23:51;;;;;;;25.17;18.38;;;;;;;10.82;76.87;99859.50;5048883;28;20036;-81
2023/04/21 01:26:18;;;;;;;30.67;19.20;;;;;;;10.81;77.58;99859.56;5049020;28;20102;-81
2023/04/21 01:28:43;;;;;;;27.20;18.75;;;;;;;10.70;77.32;99860.91;5048840;28;20025;-81
2023/04/21 01:31:09;;;;;;;29.23;19.70;;;;;;;10.60;77.38;99846.56;5049126;28;20044;-81
2023/04/21 01:33:34;;;;;;;31.25;18.33;;;;;;;10.67;77.34;99848.00;5048908;28;20106;-81
2023/04/21 01:36:00;;;;;;;32.88;20.17;;;;;;;10.72;77.73;99843.44;5048802;28;20152;-81
2023/04/21 01:38:26;;;;;;;29.85;20.00;;;;;;;10.61;78.02;99835.22;5050509;28;20068;-81
2023/04/21 01:40:52;;;;;;;31.08;22.35;;;;;;;10.43;79.33;99810.00;5051027;28;20056;-81
2023/04/21 01:43:21;;;;;;;32.78;22.10;;;;;;;10.44;79.32;99830.75;5051480;28;20525;-81
2023/04/21 01:45:47;;;;;;;28.85;19.23;;;;;;;10.43;79.35;99857.72;5051307;28;20040;-81
2023/04/21 01:48:12;;;;;;;33.33;20.75;;;;;;;10.43;79.16;99849.91;5053799;28;20033;-81
2023/04/21 01:50:37;;;;;;;30.33;20.02;;;;;;;10.54;79.20;99864.25;5054908;28;20032;-81
2023/04/21 01:53:03;;;;;;;31.20;21.17;;;;;;;10.46;79.22;99862.78;5054689;28;20025;-81
2023/04/21 01:55:28;;;;;;;34.25;21.73;;;;;;;10.28;80.00;99840.16;5054765;28;20079;-81
2023/04/21 01:57:56;;;;;;;34.35;23.23;;;;;;;10.24;81.00;99841.16;5054701;28;20061;-81
2023/04/21 02:00:22;;;;;;;29.77;23.67;;;;;;;10.28;82.25;99853.16;5054926;28;20020;-81
2023/04/21 02:02:47;;;;;;;37.45;25.90;;;;;;;10.20;83.51;99865.63;5054653;28;20484;-81
2023/04/21 02:05:13;;;;;;;40.90;27.55;;;;;;;10.09;84.58;99868.66;5053459;28;20108;-80
2023/04/21 02:07:38;;;;;;;40.83;26.98;;;;;;;9.91;84.87;99839.03;5054588;28;20464;-80
2023/04/21 02:10:04;;;;;;;41.67;26.90;;;;;;;9.91;84.89;99854.66;5054261;28;20035;-81
2023/04/21 02:12:29;;;;;;;38.95;26.80;;;;;;;9.99;84.81;99854.34;5054771;28;20461;-81
2023/04/21 02:14:55;;;;;;;43.22;26.73;;;;;;;9.90;84.53;99859.91;5054443;28;20024;-81
2023/04/21 02:17:20;;;;;;;40.15;26.17;;;;;;;9.86;84.52;99854.00;5054512;28;20043;-81
2023/04/21 02:19:46;;;;;;;38.72;25.67;;;;;;;9.83;84.36;99853.28;5054178;28;20032;-81
2023/04/21 02:22:12;;;;;;;32.70;25.27;;;;;;;9.67;85.18;99853.88;5054322;28;20385;-81
2023/04/21 02:24:37;;;;;;;39.60;27.23;;;;;;;9.65;84.88;99831.41;5054184;28;20063;-80
2023/04/21 02:27:03;;;;;;;37.97;26.17;;;;;;;9.80;84.87;99859.44;5054207;28;20045;-81
2023/04/21 02:29:28;;;;;;;36.55;25.00;;;;;;;9.73;84.47;99857.97;5054493;28;20049;-81
2023/04/21 02:31:54;;;;;;;37.00;24.88;;;;;;;9.71;84.02;99857.19;5053823;28;20076;-81
2023/04/21 02:34:19;;;;;;;38.97;25.67;;;;;;;9.49;83.71;99816.44;5054173;28;20487;-80
2023/04/21 02:36:45;;;;;;;42.20;27.20;;;;;;;9.62;84.17;99850.59;5053921;28;20143;-81
2023/04/21 02:39:11;;;;;;;31.73;24.02;;;;;;;9.57;84.03;99846.50;5053960;28;20499;-80
2023/04/21 02:41:37;;;;;;;33.65;24.25;;;;;;;9.53;84.04;99839.72;5054239;28;20045;-81
2023/04/21 02:44:02;;;;;;;33.03;23.92;;;;;;;9.58;83.19;99848.19;5053539;28;20422;-81
2023/04/21 02:46:27;;;;;;;36.13;23.20;;;;;;;9.59;82.26;99852.47;5054007;28;20036;-81
2023/04/21 02:48:53;;;;;;;33.15;22.60;;;;;;;9.58;82.07;99867.25;5053662;28;20025;-81
2023/04/21 02:51:18;;;;;;;31.35;21.92;;;;;;;9.43;82.12;99847.03;5053783;28;20032;-81
2023/04/21 02:53:43;;;;;;;36.78;22.35;;;;;;;9.50;81.58;99848.50;5053690;28;20104;-81
2023/04/21 02:56:09;;;;;;;30.60;22.13;;;;;;;9.54;80.73;99844.88;5054003;28;20386;-80
2023/04/21 02:58:35;;;;;;;29.70;21.00;;;;;;;9.55;80.79;99843.09;5053363;28;20370;-81
2023/04/21 03:01:01;;;;;;;36.50;23.67;;;;;;;9.73;80.93;99865.78;5053352;28;20025;-81
2023/04/21 03:03:26;;;;;;;31.35;22.58;;;;;;;9.53;80.82;99834.53;5053646;28;20028;-81
2023/04/21 03:06:00;;;;;;;30.45;22.95;;;;;;;9.66;80.93;99857.38;5053388;28;20048;-81
2023/04/21 03:08:25;;;;;;;31.65;21.38;;;;;;;9.62;80.92;99840.22;5053398;28;20146;-81
2023/04/21 03:10:51;;;;;;;35.50;23.27;;;;;;;9.55;80.69;99830.94;5052994;28;20070;-81
2023/04/21 03:13:16;;;;;;;35.90;23.10;;;;;;;9.57;81.31;99856.91;5053762;28;20036;-81
2023/04/21 03:15:41;;;;;;;32.50;21.77;;;;;;;9.36;80.91;99838.63;5053306;28;20476;-81
2023/04/21 03:18:07;;;;;;;30.60;22.00;;;;;;;9.50;80.63;99845.88;5053057;28;20024;-80
2023/04/21 03:20:33;;;;;;;30.83;23.00;;;;;;;9.55;80.65;99854.34;5053275;28;20465;-81
2023/04/21 03:22:58;;;;;;;36.40;22.45;;;;;;;9.39;80.91;99835.03;5052966;28;20037;-81
2023/04/21 03:25:26;;;;;;;31.30;21.58;;;;;;;9.45;80.38;99864.28;5053154;28;20029;-81
2023/04/21 03:27:51;;;;;;;29.25;20.67;;;;;;;9.26;80.33;99819.06;5053104;28;20468;-80
2023/04/21 03:30:16;;;;;;;29.40;20.55;;;;;;;9.34;79.60;99847.38;5052968;28;20047;-81
2023/04/21 03:32:42;;;;;;;32.22;21.00;;;;;;;9.39;79.59;99863.66;5053187;28;20076;-81
2023/04/21 03:35:07;;;;;;;27.85;19.33;;;;;;;9.38;78.95;99856.75;5052792;28;20358;-81
2023/04/21 03:37:32;;;;;;;27.85;19.35;;;;;;;9.39;79.32;99842.84;5053104;28;20056;-81
2023/04/21 03:39:58;;;;;;;30.75;20.92;;;;;;;9.51;79.03;99847.56;5051549;28;20480;-81
2023/04/21 03:42:24;;;;;;;28.02;20.00;;;;;;;9.53;79.15;99850.97;5053012;28;20056;-81
2023/04/21 03:44:50;;;;;;;30.95;21.38;;;;;;;9.58;79.12;99862.03;5052643;28;20025;-81
2023/04/21 03:47:16;;;;;;;27.33;19.42;;;;;;;9.61;79.34;99874.09;5053093;28;20036;-81
2023/04/21 03:49:41;;;;;;;30.80;20.88;;;;;;;9.61;79.99;99879.28;5052638;28;20049;-81
2023/04/21 03:52:07;;;;;;;26.83;19.83;;;;;;;9.51;79.88;99870.97;5052419;28;20035;-81
2023/04/21 03:54:32;;;;;;;31.63;22.35;;;;;;;9.49;80.19;99875.41;5052881;28;20072;-80
2023/04/21 03:56:57;;;;;;;27.77;20.83;;;;;;;9.33;80.85;99864.75;5052435;28;20029;-81
2023/04/21 03:59:22;;;;;;;28.50;20.50;;;;;;;9.34;81.33;99878.56;5051383;28;20036;-81
2023/04/21 04:01:48;;;;;;;30.45;20.65;;;;;;;9.19;80.99;99854.88;5052470;28;20100;-81
2023/04/21 04:04:13;;;;;;;29.73;21.75;;;;;;;9.14;81.25;99856.81;5052548;28;20029;-81
2023/04/21 04:06:39;;;;;;;27.70;20.50;;;;;;;9.10;81.60;99865.63;5052361;28;20082;-81
2023/04/21 04:09:04;;;;;;;31.50;21.52;;;;;;;9.07;82.09;99862.28;5052258;28;20434;-81
2023/04/21 04:11:31;;;;;;;28.33;22.17;;;;;;;9.10;82.18;99875.13;5051606;28;20024;-81
2023/04/21 04:13:57;;;;;;;29.83;20.75;;;;;;;8.85;82.75;99849.19;5052125;28;20024;-80
2023/04/21 04:16:22;;;;;;;27.90;21.65;;;;;;;9.09;82.82;99884.69;5052320;28;20033;-81
2023/04/21 04:18:48;;;;;;;31.52;22.48;;;;;;;9.07;83.02;99885.66;5052221;28;20033;-81
2023/04/21 04:21:14;;;;;;;35.08;22.95;;;;;;;9.14;83.29;99895.78;5051876;28;20465;-80
2023/04/21 04:23:39;;;;;;;32.85;23.63;;;;;;;9.02;83.13;99879.75;5052336;28;20191;-81
2023/04/21 04:26:05;;;;;;;35.55;23.15;;;;;;;8.97;82.95;99866.94;5051951;28;20021;-81
2023/04/21 04:28:30;;;;;;;32.60;22.45;;;;;;;9.15;83.42;99892.28;5052174;28;20025;-81
2023/04/21 04:30:56;;;;;;;33.05;22.38;;;;;;;9.24;83.43;99891.06;5051790;28;20484;-81
2023/04/21 04:33:21;;;;;;;34.70;24.65;;;;;;;9.31;83.16;99889.91;5051794;28;20047;-80
2023/04/21 04:35:46;;;;;;;32.15;23.42;;;;;;;9.28;82.76;99868.44;5051912;28;20021;-81
2023/04/21 04:38:14;;;;;;;29.65;21.70;;;;;;;9.32;82.73;99857.84;5051798;28;20379;-81
2023/04/21 04:40:41;;;;;;;31.92;23.10;;;;;;;9.42;82.42;99868.72;5051837;28;20352;-81
2023/04/21 04:43:07;;;;;;;29.42;20.75;;;;;;;9.57;82.28;99873.34;5051729;28;20032;-81
2023/04/21 04:45:33;;;;;;;29.05;20.52;;;;;;;9.68;82.10;99859.91;5051926;28;20131;-81
2023/04/21 04:47:58;;;;;;;27.92;20.92;;;;;;;9.94;81.67;99869.28;5051560;28;20571;-78
2023/04/21 04:50:24;;;;;;;30.35;22.10;;;;;;;10.19;80.53;99863.91;5051585;28;20021;-77
2023/04/21 04:52:50;;;;;;;32.95;21.75;;;;;;;10.52;79.62;99872.09;5051752;28;20461;-77
2023/04/21 04:55:15;;;;;;;30.95;20.42;;;;;;;11.04;79.31;99889.81;5051767;28;20158;-77
2023/04/21 04:57:40;;;;;;;40.70;21.02;;;;;;;11.37;78.03;99870.03;5051711;28;20457;-77
2023/04/21 05:00:10;;;;;;;29.58;19.52;;;;;;;12.15;76.36;99892.44;5047143;28;20029;-77
2023/04/21 05:02:35;;;;;;;28.38;19.38;;;;;;;13.13;73.15;99887.41;5031651;28;20033;-77
2023/04/21 05:05:01;;;;;;;29.92;20.75;;;;;;;14.22;69.90;99886.63;5031373;28;20025;-78
2023/04/21 05:07:27;;;;;;;30.63;19.88;;;;;;;15.02;67.12;99868.81;5041705;28;20388;-79
2023/04/21 05:09:53;;;;;;;33.90;20.77;;;;;;;15.42;65.71;99883.75;5031815;28;20029;-77
2023/04/21 05:12:18;;;;;;;32.40;20.45;;;;;;;15.36;65.91;99899.88;5049151;28;20025;-76
2023/04/21 05:14:44;;;;;;;33.38;19.35;;;;;;;15.11;66.15;99883.97;5052037;28;20543;-76
2023/04/21 05:17:09;;;;;;;27.38;19.08;;;;;;;15.15;66.42;99886.31;5051432;28;20028;-76
2023/04/21 05:19:36;;;;;;;26.20;18.45;;;;;;;15.52;65.84;99898.94;5051489;28;20032;-76
2023/04/21 05:22:01;;;;;;;28.20;18.98;;;;;;;16.03;64.04;99879.00;5051981;28;20025;-76
2023/04/21 05:24:27;;;;;;;24.02;17.77;;;;;;;17.06;57.91;99878.19;5055600;28;20017;-76
2023/04/21 05:26:52;;;;;;;36.10;21.10;;;;;;;17.77;58.07;99897.72;5055562;28;20059;-76
2023/04/21 05:29:18;;;;;;;30.70;19.38;;;;;;;17.76;58.75;99871.50;5055053;28;20032;-76
2023/04/21 05:31:43;;;;;;;26.25;20.50;;;;;;;17.74;59.29;99886.53;5055124;28;20021;-77
2023/04/21 05:34:08;;;;;;;34.28;22.55;;;;;;;17.53;59.66;99881.03;5055079;28;20031;-77
2023/04/21 05:36:34;;;;;;;34.83;23.45;;;;;;;17.60;58.53;99884.91;5055221;28;20045;-77
2023/04/21 05:38:59;;;;;;;31.92;21.13;;;;;;;18.07;56.08;99905.19;5054827;28;20036;-77
2023/04/21 05:41:25;;;;;;;29.85;20.63;;;;;;;18.83;54.69;99888.06;5054384;28;20032;-77
2023/04/21 05:43:50;;;;;;;23.00;18.90;;;;;;;19.63;50.96;99880.00;5054984;28;20029;-77
2023/04/21 05:46:16;;;;;;;23.02;17.08;;;;;;;19.72;50.40;99889.03;5054925;28;20078;-76
2023/04/21 05:48:41;;;;;;;21.85;17.80;;;;;;;19.38;51.41;99891.69;5054824;28;20029;-76
2023/04/21 05:51:10;;;;;;;22.40;17.45;;;;;;;18.98;51.25;99874.66;5054678;28;20028;-76
2023/04/21 05:53:40;;;;;;;23.73;16.77;;;;;;;18.86;52.17;99887.81;5055115;28;20061;-76
2023/04/21 05:56:07;;;;;;;21.75;15.10;;;;;;;18.70;51.05;99890.78;5054770;28;20110;-76
2023/04/21 05:58:33;;;;;;;25.55;15.65;;;;;;;19.32;51.27;99893.97;5055130;28;20039;-76
2023/04/21 06:00:58;;;;;;;20.58;15.50;;;;;;;20.16;49.28;99887.16;5054430;28;20034;-76
2023/04/21 06:03:23;;;;;;;21.08;16.45;;;;;;;20.39;48.63;99895.81;5054686;28;20536;-76
2023/04/21 06:05:55;;;;;;;25.33;17.27;;;;;;;19.83;49.77;99880.19;5054940;28;20427;-77
2023/04/21 06:08:21;;;;;;;21.30;16.77;;;;;;;19.59;51.34;99889.13;5054568;28;20029;-77
2023/04/21 06:10:47;;;;;;;23.60;17.25;;;;;;;19.65;51.40;99870.16;5054590;28;20501;-76
2023/04/21 06:13:12;;;;;;;21.05;15.90;;;;;;;20.12;50.72;99881.28;5054444;28;20033;-77
2023/04/21 06:15:37;;;;;;;21.83;17.15;;;;;;;20.06;48.96;99865.13;5054438;28;20025;-77
2023/04/21 06:18:03;;;;;;;20.38;16.90;;;;;;;20.17;49.35;99881.75;5054126;28;20048;-77
2023/04/21 06:20:28;;;;;;;18.15;14.85;;;;;;;20.14;48.44;99870.56;5054615;28;20030;-77
2023/04/21 06:22:53;;;;;;;20.80;16.20;;;;;;;20.31;48.20;99877.09;5054737;28;20092;-77
2023/04/21 06:25:19;;;;;;;22.35;15.35;;;;;;;20.16;49.08;99879.25;5041038;28;20051;-77
2023/04/21 06:27:45;;;;;;;21.33;14.68;;;;;;;20.72;48.37;99888.69;5034397;28;20021;-77
2023/04/21 06:30:11;;;;;;;18.08;15.50;;;;;;;21.34;47.82;99875.34;5033919;28;20030;-77
2023/04/21 06:32:36;;;;;;;21.55;16.48;;;;;;;21.83;47.59;99896.69;5033995;28;20084;-76
2023/04/21 06:35:01;;;;;;;23.33;17.00;;;;;;;22.00;47.70;99873.94;5033237;28;20049;-77
2023/04/21 06:37:27;;;;;;;19.77;17.67;;;;;;;22.35;47.04;99889.31;5034215;28;20029;-77
2023/04/21 06:39:52;;;;;;;24.25;18.35;;;;;;;23.70;46.02;99874.75;5034266;28;20025;-77
2023/04/21 06:42:17;;;;;;;23.02;17.73;;;;;;;25.12;43.68;99883.56;5033813;28;20028;-77
2023/04/21 06:44:43;;;;;;;20.85;16.90;;;;;;;26.03;41.80;99870.31;5034005;28;20029;-77
2023/04/21 06:47:08;;;;;;;20.98;17.15;;;;;;;25.36;42.41;99878.31;5033697;28;20037;-77
2023/04/21 06:49:35;;;;;;;20.90;15.73;;;;;;;24.86;43.03;99889.72;5034084;28;20029;-77
2023/04/21 06:52:01;;;;;;;19.33;17.27;;;;;;;25.46;43.11;99869.34;5033830;28;20076;-77
2023/04/21 06:54:26;;;;;;;17.92;15.93;;;;;;;26.97;40.17;99878.75;5033946;28;20049;-77
2023/04/21 06:56:51;;;;;;;20.13;17.52;;;;;;;28.33;39.15;99879.22;5033661;28;20029;-77
2023/04/21 06:59:17;;;;;;;20.05;17.98;;;;;;;29.44;37.45;99877.56;5033576;28;20025;-77
2023/04/21 07:01:42;;;;;;;18.52;15.65;;;;;;;29.80;36.61;99886.47;5033964;28;20037;-77
2023/04/21 07:04:07;;;;;;;21.50;16.17;;;;;;;30.44;35.47;99864.16;5033446;28;20108;-77
2023/04/21 07:06:33;;;;;;;18.92;16.02;;;;;;;31.38;35.25;99887.09;5033484;28;20041;-77
2023/04/21 07:08:58;;;;;;;17.77;15.98;;;;;;;31.26;35.06;99876.84;5033671;28;20109;-77
2023/04/21 07:11:24;;;;;;;17.35;15.60;;;;;;;32.02;34.14;99876.72;5033397;28;20086;-77
2023/04/21 07:13:49;;;;;;;18.35;16.00;;;;;;;32.63;33.50;99885.69;5033525;28;20098;-77
2023/04/21 07:16:15;;;;;;;19.63;16.40;;;;;;;33.06;33.33;99880.63;5033179;28;20084;-77
2023/04/21 07:18:40;;;;;;;17.67;15.50;;;;;;;33.98;32.57;99878.59;5033603;28;20525;-77
2023/04/21 07:21:06;;;;;;;20.13;17.70;;;;;;;34.23;31.97;99868.63;5033284;28;20022;-77
2023/04/21 07:23:31;;;;;;;18.80;15.88;;;;;;;34.59;31.91;99877.06;5033339;28;20326;-77
2023/04/21 07:25:57;;;;;;;17.58;15.68;;;;;;;34.89;30.60;99885.28;5033219;28;20038;-77
2023/04/21 07:28:23;;;;;;;17.20;15.45;;;;;;;34.06;30.29;99858.59;5033041;28;20033;-77
2023/04/21 07:30:48;;;;;;;16.73;15.00;;;;;;;34.48;30.26;99878.63;5033094;28;20487;-77
2023/04/21 07:33:13;;;;;;;15.63;13.95;;;;;;;34.45;29.87;99871.75;5031521;28;20041;-77
2023/04/21 07:35:39;;;;;;;16.30;13.15;;;;;;;34.51;29.91;99872.75;5033163;28;20021;-77
2023/04/21 07:38:04;;;;;;;14.32;12.93;;;;;;;34.39;30.15;99861.84;5032907;28;20026;-77
2023/04/21 07:40:30;;;;;;;15.57;13.68;;;;;;;35.23;29.88;99856.84;5033233;28;20029;-77
2023/04/21 07:42:55;;;;;;;14.90;13.30;;;;;;;35.88;29.21;99867.81;5033083;28;20469;-77
2023/04/21 07:45:21;;;;;;;18.00;13.70;;;;;;;36.31;28.60;99861.31;5032442;28;20025;-77
2023/04/21 07:47:46;;;;;;;14.05;12.35;;;;;;;35.66;28.26;99843.16;5033069;28;20520;-77
2023/04/21 07:50:11;;;;;;;15.63;13.43;;;;;;;35.44;29.00;99869.03;5032468;28;20109;-77
2023/04/21 07:52:37;;;;;;;14.30;12.80;;;;;;;35.83;28.83;99873.13;5033041;28;20117;-77
2023/04/21 07:55:02;;;;;;;14.52;13.15;;;;;;;34.32;29.64;99857.53;5032815;28;20025;-77
2023/04/21 07:57:28;;;;;;;13.52;12.13;;;;;;;35.08;29.58;99859.91;5032496;28;20026;-77
2023/04/21 07:59:53;;;;;;;14.45;13.05;;;;;;;35.41;28.83;99866.81;5032544;28;20065;-77
2023/04/21 08:02:18;;;;;;;14.88;12.70;;;;;;;35.23;28.76;99867.66;5032613;28;20095;-77
2023/04/21 08:04:44;;;;;;;13.57;12.32;;;;;;;35.14;28.41;99872.53;5032725;28;20088;-77
2023/04/21 08:07:09;;;;;;;12.52;11.38;;;;;;;34.66;28.27;99858.91;5032414;28;20021;-77
2023/04/21 08:09:34;;;;;;;13.45;10.32;;;;;;;34.30;28.90;99860.44;5032548;28;20065;-77
2023/04/21 08:12:01;;;;;;;15.65;12.38;;;;;;;33.59;29.09;99847.22;5032518;28;20029;-77
2023/04/21 08:14:27;;;;;;;14.75;12.43;;;;;;;33.20;28.86;99832.84;5032160;28;20060;-77
2023/04/21 08:16:53;;;;;;;15.25;12.45;;;;;;;33.11;29.65;99844.91;5032288;28;20029;-77
2023/04/21 08:19:18;;;;;;;15.70;13.23;;;;;;;32.42;31.02;99851.69;5032192;28;20105;-77
2023/04/21 08:21:43;;;;;;;13.85;12.38;;;;;;;29.95;32.13;99840.75;5032386;28;20108;-76
2023/04/21 08:24:09;;;;;;;14.60;12.63;;;;;;;27.88;34.95;99858.66;5032126;28;20021;-76
2023/04/21 08:26:34;;;;;;;15.05;13.45;;;;;;;26.34;37.08;99848.31;5032261;28;20477;-76
2023/04/21 08:29:00;;;;;;;15.43;13.80;;;;;;;24.66;39.97;99839.47;5031976;28;20029;-76
2023/04/21 08:31:25;;;;;;;16.42;13.30;;;;;;;23.49;42.39;99864.34;5032025;28;20030;-76
2023/04/21 08:33:53;;;;;;;16.92;14.50;;;;;;;23.19;43.41;99865.50;5032247;28;20053;-76
2023/04/21 08:36:19;;;;;;;16.55;13.07;;;;;;;22.49;44.20;99864.16;5031924;28;20389;-76
2023/04/21 08:38:44;;;;;;;15.80;13.57;;;;;;;22.26;44.76;99858.31;5031967;28;20029;-76
2023/04/21 08:41:10;;;;;;;15.10;12.30;;;;;;;22.04;44.29;99828.44;5031805;28;20120;-76
2023/04/21 08:43:35;;;;;;;15.30;11.77;;;;;;;22.16;44.62;99837.97;5031893;28;20584;-76
2023/04/21 08:46:06;;;;;;;16.70;13.38;;;;;;;21.64;45.28;99839.16;5032445;28;20083;-76
2023/04/21 08:48:35;;;;;;;15.70;13.15;;;;;;;21.35;45.41;99849.69;5031801;28;20094;-76
2023/04/21 08:51:01;;;;;;;16.02;12.88;;;;;;;21.21;46.50;99856.19;5032137;28;20040;-76
2023/04/21 08:53:26;;;;;;;14.18;12.68;;;;;;;20.66;47.30;99847.72;5031837;28;20040;-76
2023/04/21 08:55:54;;;;;;;15.25;13.13;;;;;;;20.70;48.04;99840.38;5032014;28;20033;-76
2023/04/21 08:58:23;;;;;;;19.25;15.50;;;;;;;20.69;49.39;99855.41;5037152;28;20029;-76
2023/04/21 09:00:49;;;;;;;19.63;16.58;;;;;;;20.68;50.33;99837.84;5038240;28;20488;-76
2023/04/21 09:03:22;;;;;;;21.38;15.98;;;;;;;20.54;50.29;99828.44;5038267;28;20022;-76
2023/04/21 09:06:00;;;;;;;19.45;17.23;;;;;;;20.45;51.27;99839.78;5038375;28;20135;-76
2023/04/21 09:08:27;;;;;;;23.10;17.30;;;;;;;20.43;52.36;99847.81;5038338;28;20036;-76
2023/04/21 09:10:53;;;;;;;20.88;15.48;;;;;;;20.25;52.29;99844.09;5038193;28;20124;-76
2023/04/21 09:13:19;;;;;;;23.48;17.45;;;;;;;19.90;52.54;99841.75;5038244;28;20137;-76
2023/04/21 09:15:47;;;;;;;18.95;15.93;;;;;;;19.99;52.03;99850.72;5038411;28;20098;-76
2023/04/21 09:18:14;;;;;;;22.65;16.25;;;;;;;19.78;51.41;99850.66;5037126;28;20412;-76
2023/04/21 09:20:40;;;;;;;17.63;15.77;;;;;;;19.97;51.86;99847.34;5038211;28;20116;-76
2023/04/21 09:23:06;;;;;;;19.08;15.35;;;;;;;20.03;52.01;99839.75;5038171;28;20417;-76
2023/04/21 09:25:32;;;;;;;19.58;14.95;;;;;;;19.98;51.16;99819.97;5037923;28;20041;-76
2023/04/21 09:28:00;;;;;;;19.60;15.45;;;;;;;19.86;50.44;99843.78;5038362;28;20017;-76
2023/04/21 09:30:26;;;;;;;19.17;15.10;;;;;;;19.53;51.49;99841.22;5038034;28;20041;-76
2023/04/21 09:32:56;;;;;;;19.83;15.20;;;;;;;19.39;52.12;99824.69;5038503;28;20060;-76
2023/04/21 09:35:22;;;;;;;20.33;16.50;;;;;;;19.35;52.28;99836.47;5037897;28;20376;-76
2023/04/21 09:37:47;;;;;;;17.88;13.85;;;;;;;19.29;51.67;99814.97;5037887;28;20029;-76
2023/04/21 09:40:16;;;;;;;16.73;14.63;;;;;;;19.42;51.03;99829.72;5037918;28;20465;-76
2023/04/21 09:42:41;;;;;;;19.38;16.15;;;;;;;19.44;51.54;99806.66;5038180;28;20108;-76
2023/04/21 09:45:11;;;;;;;20.40;14.80;;;;;;;19.56;50.94;99809.28;5038449;28;20101;-76
2023/04/21 09:47:40;;;;;;;18.65;14.55;;;;;;;19.84;50.37;99831.66;5037774;28;20028;-76
2023/04/21 09:50:08;;;;;;;16.40;14.32;;;;;;;19.69;49.70;99804.69;5037824;28;20037;-76
2023/04/21 09:52:36;;;;;;;18.15;13.93;;;;;;;19.69;49.63;99812.63;5038138;28;20504;-76
2023/04/21 09:55:06;;;;;;;15.65;13.93;;;;;;;19.69;48.59;99824.03;5038129;28;20026;-76
2023/04/21 09:57:37;;;;;;;21.23;13.85;;;;;;;19.71;49.28;99826.53;5037820;28;20066;-76
2023/04/21 10:00:08;;;;;;;16.98;14.32;;;;;;;19.60;49.00;99800.97;5037888;28;20076;-76
2023/04/21 10:02:36;;;;;;;16.52;14.27;;;;;;;19.54;49.14;99806.75;5037690;28;20040;-76
2023/04/21 10:05:05;;;;;;;15.48;13.07;;;;;;;19.64;47.57;99817.44;5037656;28;20029;-76
2023/04/21 10:07:30;;;;;;;17.02;13.75;;;;;;;19.66;46.78;99810.22;5037794;28;20029;-76
2023/04/21 10:09:58;;;;;;;19.98;14.25;;;;;;;19.38;48.37;99807.16;5035085;28;20433;-76
2023/04/21 10:12:25;;;;;;;21.52;14.45;;;;;;;19.36;49.01;99800.31;5034636;28;20029;-76
2023/04/21 10:14:52;;;;;;;18.80;13.98;;;;;;;19.44;48.57;99806.66;5034759;28;20034;-76
2023/04/21 10:17:21;;;;;;;15.85;12.55;;;;;;;19.35;48.04;99798.66;5034318;28;20053;-76
2023/04/21 10:19:56;;;;;;;15.05;12.30;;;;;;;19.37;47.57;99816.03;5034615;28;20049;-76
2023/04/21 10:22:32;;;;;;;15.27;13.18;;;;;;;19.25;47.35;99811.72;5034387;28;20029;-76
2023/04/21 10:24:59;;;;;;;17.85;12.35;;;;;;;19.22;47.20;99780.31;5034366;28;20541;-76
2023/04/21 10:27:38;;;;;;;15.25;11.75;;;;;;;19.46;46.26;99795.94;5034185;28;20078;-76
2023/04/21 10:30:21;;;;;;;11.93;10.68;;;;;;;19.51;44.79;99804.38;5034179;28;20030;-76
2023/04/21 10:32:47;;;;;;;15.70;11.98;;;;;;;19.57;45.55;99789.81;5034473;28;20047;-76
2023/04/21 10:35:18;;;;;;;15.85;11.77;;;;;;;19.44;46.43;99772.31;5034387;28;20421;-76
2023/04/21 10:37:47;;;;;;;14.38;11.00;;;;;;;19.68;44.92;99790.66;5034439;28;20045;-76
2023/04/21 10:40:34;;;;;;;14.52;10.57;;;;;;;19.70;45.41;99787.88;5034007;28;20079;-76
2023/04/21 10:43:01;;;;;;;12.25;10.50;;;;;;;19.66;45.82;99786.44;5034374;28;20033;-76
2023/04/21 10:45:27;;;;;;;13.15;10.43;;;;;;;19.71;46.05;99786.06;5033942;28;20033;-76
2023/04/21 10:47:52;;;;;;;14.73;12.23;;;;;;;19.52;46.84;99769.06;5034090;28;20029;-76
2023/04/21 10:50:28;;;;;;;14.43;12.00;;;;;;;19.60;46.98;99786.94;5033764;28;20453;-76
2023/04/21 10:53:10;;;;;;;15.80;11.88;;;;;;;19.65;46.75;99780.31;5033840;28;20043;-76
2023/04/21 10:55:37;;;;;;;16.45;13.57;;;;;;;19.64;46.72;99789.22;5033855;28;20108;-76
2023/04/21 10:58:05;;;;;;;14.35;11.88;;;;;;;19.51;46.67;99763.88;5034168;28;20037;-76
2023/04/21 11:00:31;;;;;;;13.48;12.15;;;;;;;19.64;47.50;99776.00;5033616;28;20117;-76
2023/04/21 11:03:02;;;;;;;16.80;12.45;;;;;;;19.32;47.32;99754.81;5034176;28;20025;-76
2023/04/21 11:05:45;;;;;;;13.45;12.05;;;;;;;19.13;47.32;99755.50;5033347;28;20025;-76
2023/04/21 11:08:13;;;;;;;14.57;11.90;;;;;;;19.30;47.28;99767.34;5033845;28;20037;-76
2023/04/21 11:10:53;;;;;;;13.70;11.75;;;;;;;19.48;47.33;99767.63;5033428;28;20093;-76
2023/04/21 11:13:24;;;;;;;14.00;11.50;;;;;;;19.42;47.51;99742.56;5033285;28;20032;-76
2023/04/21 11:16:01;;;;;;;15.63;11.95;;;;;;;19.35;47.47;99737.91;5033414;28;20381;-76